sensor_id;sensor_type;location;lat;lon;timestamp;P1;durP1;ratioP1;P2;durP2;ratioP2
23812;SDS011;12087;45.190;5.688;2023-07-30T00:00:43;5.28;;;3.00;;
23812;SDS011;12087;45.190;5.688;2023-07-30T00:06:06;4.97;;;3.20;;
23812;SDS011;12087;45.190;5.688;2023-07-30T00:11:29;5.57;;;2.80;;
23812;SDS011;12087;45.190;5.688;2023-07-30T00:16:51;6.05;;;3.42;;
23812;SDS011;12087;45.190;5.688;2023-07-30T00:22:14;4.05;;;3.08;;
23812;SDS011;12087;45.190;5.688;2023-07-30T00:27:37;4.60;;;2.92;;
23812;SDS011;12087;45.190;5.688;2023-07-30T00:32:59;4.35;;;3.17;;
23812;SDS011;12087;45.190;5.688;2023-07-30T00:38:23;5.47;;;2.55;;
23812;SDS011;12087;45.190;5.688;2023-07-30T00:43:45;5.68;;;3.13;;
23812;SDS011;12087;45.190;5.688;2023-07-30T00:49:07;8.45;;;2.60;;
23812;SDS011;12087;45.190;5.688;2023-07-30T00:54:31;2.75;;;2.33;;
23812;SDS011;12087;45.190;5.688;2023-07-30T00:59:53;4.65;;;3.08;;
23812;SDS011;12087;45.190;5.688;2023-07-30T01:05:16;4.22;;;3.00;;
23812;SDS011;12087;45.190;5.688;2023-07-30T01:10:40;5.65;;;3.15;;
23812;SDS011;12087;45.190;5.688;2023-07-30T01:16:04;8.98;;;3.42;;
23812;SDS011;12087;45.190;5.688;2023-07-30T01:21:28;5.00;;;2.67;;
23812;SDS011;12087;45.190;5.688;2023-07-30T01:26:51;3.75;;;3.30;;
23812;SDS011;12087;45.190;5.688;2023-07-30T01:32:18;3.92;;;2.55;;
23812;SDS011;12087;45.190;5.688;2023-07-30T01:37:45;4.40;;;2.97;;
23812;SDS011;12087;45.190;5.688;2023-07-30T01:43:08;5.43;;;2.85;;
23812;SDS011;12087;45.190;5.688;2023-07-30T01:48:31;4.63;;;2.67;;
23812;SDS011;12087;45.190;5.688;2023-07-30T01:53:55;4.88;;;2.80;;
23812;SDS011;12087;45.190;5.688;2023-07-30T01:59:17;5.03;;;3.05;;
23812;SDS011;12087;45.190;5.688;2023-07-30T02:04:39;4.00;;;2.88;;
23812;SDS011;12087;45.190;5.688;2023-07-30T02:10:03;5.57;;;3.13;;
23812;SDS011;12087;45.190;5.688;2023-07-30T02:15:26;6.28;;;3.28;;
23812;SDS011;12087;45.190;5.688;2023-07-30T02:20:49;5.25;;;3.40;;
23812;SDS011;12087;45.190;5.688;2023-07-30T02:26:13;4.68;;;2.90;;
23812;SDS011;12087;45.190;5.688;2023-07-30T02:31:35;6.30;;;3.45;;
23812;SDS011;12087;45.190;5.688;2023-07-30T02:36:57;6.53;;;3.17;;
23812;SDS011;12087;45.190;5.688;2023-07-30T02:42:21;6.15;;;3.40;;
23812;SDS011;12087;45.190;5.688;2023-07-30T02:47:43;6.68;;;3.70;;
23812;SDS011;12087;45.190;5.688;2023-07-30T02:53:05;4.85;;;3.03;;
23812;SDS011;12087;45.190;5.688;2023-07-30T02:58:29;6.32;;;3.40;;
23812;SDS011;12087;45.190;5.688;2023-07-30T03:03:51;5.65;;;3.30;;
23812;SDS011;12087;45.190;5.688;2023-07-30T03:09:13;7.00;;;2.97;;
23812;SDS011;12087;45.190;5.688;2023-07-30T03:14:37;4.35;;;3.25;;
23812;SDS011;12087;45.190;5.688;2023-07-30T03:19:59;6.97;;;3.05;;
23812;SDS011;12087;45.190;5.688;2023-07-30T03:25:21;5.80;;;2.95;;
23812;SDS011;12087;45.190;5.688;2023-07-30T03:30:45;4.03;;;3.22;;
23812;SDS011;12087;45.190;5.688;2023-07-30T03:36:07;5.57;;;2.42;;
23812;SDS011;12087;45.190;5.688;2023-07-30T03:41:30;5.75;;;3.20;;
23812;SDS011;12087;45.190;5.688;2023-07-30T03:46:54;6.35;;;2.97;;
23812;SDS011;12087;45.190;5.688;2023-07-30T03:52:16;3.60;;;2.88;;
23812;SDS011;12087;45.190;5.688;2023-07-30T03:57:38;6.45;;;3.72;;
23812;SDS011;12087;45.190;5.688;2023-07-30T04:03:02;6.05;;;3.10;;
23812;SDS011;12087;45.190;5.688;2023-07-30T04:08:25;5.65;;;3.63;;
23812;SDS011;12087;45.190;5.688;2023-07-30T04:13:47;4.82;;;3.30;;
23812;SDS011;12087;45.190;5.688;2023-07-30T04:19:11;9.63;;;3.53;;
23812;SDS011;12087;45.190;5.688;2023-07-30T04:24:34;8.07;;;3.38;;
23812;SDS011;12087;45.190;5.688;2023-07-30T04:29:56;8.18;;;3.88;;
23812;SDS011;12087;45.190;5.688;2023-07-30T04:35:20;6.45;;;3.33;;
23812;SDS011;12087;45.190;5.688;2023-07-30T04:40:43;5.40;;;3.30;;
23812;SDS011;12087;45.190;5.688;2023-07-30T04:46:05;9.27;;;4.22;;
23812;SDS011;12087;45.190;5.688;2023-07-30T04:51:30;6.60;;;3.70;;
23812;SDS011;12087;45.190;5.688;2023-07-30T04:56:52;9.00;;;3.30;;
23812;SDS011;12087;45.190;5.688;2023-07-30T05:02:14;6.05;;;3.60;;
23812;SDS011;12087;45.190;5.688;2023-07-30T05:07:38;5.25;;;3.30;;
23812;SDS011;12087;45.190;5.688;2023-07-30T05:13:00;8.07;;;4.35;;
23812;SDS011;12087;45.190;5.688;2023-07-30T05:18:24;6.07;;;4.13;;
23812;SDS011;12087;45.190;5.688;2023-07-30T05:23:47;7.20;;;4.03;;
23812;SDS011;12087;45.190;5.688;2023-07-30T05:29:09;7.45;;;3.63;;
23812;SDS011;12087;45.190;5.688;2023-07-30T05:34:32;7.82;;;4.43;;
23812;SDS011;12087;45.190;5.688;2023-07-30T05:39:55;7.45;;;4.05;;
23812;SDS011;12087;45.190;5.688;2023-07-30T05:45:17;6.70;;;4.35;;
23812;SDS011;12087;45.190;5.688;2023-07-30T05:50:40;5.70;;;4.05;;
23812;SDS011;12087;45.190;5.688;2023-07-30T05:56:03;6.22;;;3.72;;
23812;SDS011;12087;45.190;5.688;2023-07-30T06:01:26;3.92;;;3.40;;
23812;SDS011;12087;45.190;5.688;2023-07-30T06:06:49;4.07;;;3.67;;
23812;SDS011;12087;45.190;5.688;2023-07-30T06:12:12;13.63;;;4.53;;
23812;SDS011;12087;45.190;5.688;2023-07-30T06:17:36;8.88;;;4.45;;
23812;SDS011;12087;45.190;5.688;2023-07-30T06:22:58;6.22;;;3.88;;
23812;SDS011;12087;45.190;5.688;2023-07-30T06:28:21;5.53;;;3.88;;
23812;SDS011;12087;45.190;5.688;2023-07-30T06:33:44;6.40;;;4.32;;
23812;SDS011;12087;45.190;5.688;2023-07-30T06:39:06;6.78;;;4.45;;
23812;SDS011;12087;45.190;5.688;2023-07-30T06:44:30;7.72;;;4.22;;
23812;SDS011;12087;45.190;5.688;2023-07-30T06:49:52;8.20;;;4.72;;
23812;SDS011;12087;45.190;5.688;2023-07-30T06:55:15;5.55;;;4.50;;
23812;SDS011;12087;45.190;5.688;2023-07-30T07:00:38;8.68;;;4.40;;
23812;SDS011;12087;45.190;5.688;2023-07-30T07:06:00;7.07;;;4.72;;
23812;SDS011;12087;45.190;5.688;2023-07-30T07:11:23;4.28;;;3.88;;
23812;SDS011;12087;45.190;5.688;2023-07-30T07:16:46;6.68;;;4.82;;
23812;SDS011;12087;45.190;5.688;2023-07-30T07:22:09;7.00;;;4.70;;
23812;SDS011;12087;45.190;5.688;2023-07-30T07:27:31;6.47;;;4.18;;
23812;SDS011;12087;45.190;5.688;2023-07-30T07:32:55;6.88;;;4.68;;
23812;SDS011;12087;45.190;5.688;2023-07-30T07:38:17;7.38;;;4.40;;
23812;SDS011;12087;45.190;5.688;2023-07-30T07:43:39;10.10;;;4.35;;
23812;SDS011;12087;45.190;5.688;2023-07-30T07:49:03;6.85;;;4.47;;
23812;SDS011;12087;45.190;5.688;2023-07-30T07:54:25;6.13;;;4.55;;
23812;SDS011;12087;45.190;5.688;2023-07-30T07:59:47;8.18;;;4.38;;
23812;SDS011;12087;45.190;5.688;2023-07-30T08:05:11;6.93;;;5.05;;
23812;SDS011;12087;45.190;5.688;2023-07-30T08:10:37;6.68;;;4.78;;
23812;SDS011;12087;45.190;5.688;2023-07-30T08:16:00;4.78;;;3.67;;
23812;SDS011;12087;45.190;5.688;2023-07-30T08:21:25;5.55;;;3.55;;
23812;SDS011;12087;45.190;5.688;2023-07-30T08:26:47;4.80;;;2.78;;
23812;SDS011;12087;45.190;5.688;2023-07-30T08:32:09;4.03;;;3.30;;
23812;SDS011;12087;45.190;5.688;2023-07-30T08:37:33;2.30;;;2.10;;
23812;SDS011;12087;45.190;5.688;2023-07-30T08:42:55;2.38;;;2.17;;
23812;SDS011;12087;45.190;5.688;2023-07-30T08:48:17;3.47;;;2.88;;
23812;SDS011;12087;45.190;5.688;2023-07-30T08:53:41;6.57;;;4.32;;
23812;SDS011;12087;45.190;5.688;2023-07-30T08:59:04;4.45;;;2.38;;
23812;SDS011;12087;45.190;5.688;2023-07-30T09:04:27;4.50;;;2.45;;
23812;SDS011;12087;45.190;5.688;2023-07-30T09:09:55;4.07;;;2.72;;
23812;SDS011;12087;45.190;5.688;2023-07-30T09:15:18;6.63;;;2.60;;
23812;SDS011;12087;45.190;5.688;2023-07-30T09:20:42;4.63;;;2.70;;
23812;SDS011;12087;45.190;5.688;2023-07-30T09:26:05;3.92;;;1.98;;
23812;SDS011;12087;45.190;5.688;2023-07-30T09:31:28;3.33;;;2.03;;
23812;SDS011;12087;45.190;5.688;2023-07-30T09:36:50;4.28;;;2.05;;
23812;SDS011;12087;45.190;5.688;2023-07-30T09:42:15;3.38;;;2.00;;
23812;SDS011;12087;45.190;5.688;2023-07-30T09:47:37;2.22;;;2.03;;
23812;SDS011;12087;45.190;5.688;2023-07-30T09:53:00;2.50;;;2.00;;
23812;SDS011;12087;45.190;5.688;2023-07-30T09:58:25;5.53;;;2.40;;
23812;SDS011;12087;45.190;5.688;2023-07-30T10:03:48;2.33;;;1.70;;
23812;SDS011;12087;45.190;5.688;2023-07-30T10:09:11;3.53;;;2.85;;
23812;SDS011;12087;45.190;5.688;2023-07-30T10:14:36;4.85;;;2.92;;
23812;SDS011;12087;45.190;5.688;2023-07-30T10:20:02;4.03;;;3.08;;
23812;SDS011;12087;45.190;5.688;2023-07-30T10:25:42;3.40;;;2.40;;
23812;SDS011;12087;45.190;5.688;2023-07-30T10:31:07;4.18;;;2.47;;
23812;SDS011;12087;45.190;5.688;2023-07-30T10:36:30;3.42;;;2.72;;
23812;SDS011;12087;45.190;5.688;2023-07-30T10:41:54;4.43;;;2.33;;
23812;SDS011;12087;45.190;5.688;2023-07-30T10:47:19;5.15;;;2.10;;
23812;SDS011;12087;45.190;5.688;2023-07-30T10:52:43;4.97;;;3.15;;
23812;SDS011;12087;45.190;5.688;2023-07-30T10:58:06;2.90;;;2.60;;
23812;SDS011;12087;45.190;5.688;2023-07-30T11:03:30;5.45;;;2.40;;
23812;SDS011;12087;45.190;5.688;2023-07-30T11:08:52;4.65;;;2.15;;
23812;SDS011;12087;45.190;5.688;2023-07-30T11:14:15;4.03;;;1.83;;
23812;SDS011;12087;45.190;5.688;2023-07-30T11:19:42;3.03;;;1.92;;
23812;SDS011;12087;45.190;5.688;2023-07-30T11:25:15;3.42;;;2.03;;
23812;SDS011;12087;45.190;5.688;2023-07-30T11:30:38;4.25;;;1.70;;
23812;SDS011;12087;45.190;5.688;2023-07-30T11:36:02;2.05;;;1.85;;
23812;SDS011;12087;45.190;5.688;2023-07-30T11:41:25;2.45;;;1.75;;
23812;SDS011;12087;45.190;5.688;2023-07-30T11:46:52;4.38;;;1.73;;
23812;SDS011;12087;45.190;5.688;2023-07-30T11:52:17;3.88;;;1.73;;
23812;SDS011;12087;45.190;5.688;2023-07-30T11:57:39;2.22;;;1.40;;
23812;SDS011;12087;45.190;5.688;2023-07-30T12:03:02;3.10;;;1.75;;
23812;SDS011;12087;45.190;5.688;2023-07-30T12:08:26;2.20;;;1.60;;
23812;SDS011;12087;45.190;5.688;2023-07-30T12:13:48;1.80;;;1.50;;
23812;SDS011;12087;45.190;5.688;2023-07-30T12:19:11;2.85;;;1.90;;
23812;SDS011;12087;45.190;5.688;2023-07-30T12:24:35;4.40;;;2.83;;
23812;SDS011;12087;45.190;5.688;2023-07-30T12:29:57;2.80;;;1.77;;
23812;SDS011;12087;45.190;5.688;2023-07-30T12:35:19;7.28;;;5.78;;
23812;SDS011;12087;45.190;5.688;2023-07-30T12:40:43;2.30;;;1.60;;
23812;SDS011;12087;45.190;5.688;2023-07-30T12:46:05;2.20;;;1.40;;
23812;SDS011;12087;45.190;5.688;2023-07-30T12:51:27;2.75;;;1.80;;
23812;SDS011;12087;45.190;5.688;2023-07-30T12:56:51;1.92;;;1.52;;
23812;SDS011;12087;45.190;5.688;2023-07-30T13:02:13;2.53;;;1.50;;
23812;SDS011;12087;45.190;5.688;2023-07-30T13:07:35;2.08;;;1.30;;
23812;SDS011;12087;45.190;5.688;2023-07-30T13:12:59;1.65;;;1.45;;
23812;SDS011;12087;45.190;5.688;2023-07-30T13:18:21;2.10;;;1.38;;
23812;SDS011;12087;45.190;5.688;2023-07-30T13:23:43;1.83;;;1.20;;
23812;SDS011;12087;45.190;5.688;2023-07-30T13:29:07;1.92;;;1.45;;
23812;SDS011;12087;45.190;5.688;2023-07-30T13:34:30;2.08;;;1.20;;
23812;SDS011;12087;45.190;5.688;2023-07-30T13:39:53;2.83;;;1.40;;
23812;SDS011;12087;45.190;5.688;2023-07-30T13:45:16;2.35;;;1.58;;
23812;SDS011;12087;45.190;5.688;2023-07-30T13:50:39;2.80;;;1.70;;
23812;SDS011;12087;45.190;5.688;2023-07-30T13:56:01;2.70;;;1.15;;
23812;SDS011;12087;45.190;5.688;2023-07-30T14:01:24;2.78;;;1.70;;
23812;SDS011;12087;45.190;5.688;2023-07-30T14:06:47;2.55;;;1.60;;
23812;SDS011;12087;45.190;5.688;2023-07-30T14:12:09;2.40;;;1.50;;
23812;SDS011;12087;45.190;5.688;2023-07-30T14:17:33;2.03;;;1.35;;
23812;SDS011;12087;45.190;5.688;2023-07-30T14:22:55;1.50;;;1.40;;
23812;SDS011;12087;45.190;5.688;2023-07-30T14:28:21;1.52;;;1.30;;
23812;SDS011;12087;45.190;5.688;2023-07-30T14:33:45;1.40;;;1.30;;
23812;SDS011;12087;45.190;5.688;2023-07-30T14:39:07;1.55;;;1.15;;
23812;SDS011;12087;45.190;5.688;2023-07-30T14:44:29;3.55;;;1.50;;
23812;SDS011;12087;45.190;5.688;2023-07-30T14:49:53;2.78;;;1.55;;
23812;SDS011;12087;45.190;5.688;2023-07-30T14:55:15;2.05;;;1.30;;
23812;SDS011;12087;45.190;5.688;2023-07-30T15:00:37;1.45;;;1.05;;
23812;SDS011;12087;45.190;5.688;2023-07-30T15:06:01;2.35;;;1.60;;
23812;SDS011;12087;45.190;5.688;2023-07-30T15:11:23;2.38;;;1.40;;
23812;SDS011;12087;45.190;5.688;2023-07-30T15:16:45;1.80;;;1.40;;
23812;SDS011;12087;45.190;5.688;2023-07-30T15:22:09;2.60;;;1.58;;
23812;SDS011;12087;45.190;5.688;2023-07-30T15:27:31;4.55;;;1.63;;
23812;SDS011;12087;45.190;5.688;2023-07-30T15:32:53;4.68;;;1.40;;
23812;SDS011;12087;45.190;5.688;2023-07-30T15:38:17;2.20;;;1.58;;
23812;SDS011;12087;45.190;5.688;2023-07-30T15:43:39;2.17;;;1.75;;
23812;SDS011;12087;45.190;5.688;2023-07-30T15:49:01;2.83;;;1.27;;
23812;SDS011;12087;45.190;5.688;2023-07-30T15:54:32;3.15;;;1.58;;
23812;SDS011;12087;45.190;5.688;2023-07-30T15:59:55;3.67;;;1.50;;
23812;SDS011;12087;45.190;5.688;2023-07-30T16:05:17;3.03;;;1.65;;
23812;SDS011;12087;45.190;5.688;2023-07-30T16:10:41;4.30;;;1.60;;
23812;SDS011;12087;45.190;5.688;2023-07-30T16:16:06;2.63;;;1.70;;
23812;SDS011;12087;45.190;5.688;2023-07-30T16:21:29;6.30;;;2.35;;
23812;SDS011;12087;45.190;5.688;2023-07-30T16:26:53;3.85;;;1.67;;
23812;SDS011;12087;45.190;5.688;2023-07-30T16:32:15;2.63;;;1.75;;
23812;SDS011;12087;45.190;5.688;2023-07-30T16:37:37;1.75;;;1.58;;
23812;SDS011;12087;45.190;5.688;2023-07-30T16:43:01;3.40;;;1.75;;
23812;SDS011;12087;45.190;5.688;2023-07-30T16:48:23;3.22;;;2.00;;
23812;SDS011;12087;45.190;5.688;2023-07-30T16:53:45;3.83;;;1.48;;
23812;SDS011;12087;45.190;5.688;2023-07-30T16:59:09;2.28;;;1.55;;
23812;SDS011;12087;45.190;5.688;2023-07-30T17:04:31;2.35;;;1.65;;
23812;SDS011;12087;45.190;5.688;2023-07-30T17:09:53;1.70;;;1.42;;
23812;SDS011;12087;45.190;5.688;2023-07-30T17:15:17;2.15;;;1.55;;
23812;SDS011;12087;45.190;5.688;2023-07-30T17:20:40;2.20;;;1.40;;
23812;SDS011;12087;45.190;5.688;2023-07-30T17:26:02;2.13;;;1.55;;
23812;SDS011;12087;45.190;5.688;2023-07-30T17:31:25;3.47;;;1.80;;
23812;SDS011;12087;45.190;5.688;2023-07-30T17:36:48;6.55;;;2.13;;
23812;SDS011;12087;45.190;5.688;2023-07-30T17:42:11;2.70;;;1.63;;
23812;SDS011;12087;45.190;5.688;2023-07-30T17:47:35;2.28;;;1.60;;
23812;SDS011;12087;45.190;5.688;2023-07-30T17:52:57;2.75;;;1.77;;
23812;SDS011;12087;45.190;5.688;2023-07-30T17:58:20;2.60;;;1.40;;
23812;SDS011;12087;45.190;5.688;2023-07-30T18:03:45;2.63;;;2.05;;
23812;SDS011;12087;45.190;5.688;2023-07-30T18:09:07;2.50;;;1.73;;
23812;SDS011;12087;45.190;5.688;2023-07-30T18:14:29;2.30;;;1.50;;
23812;SDS011;12087;45.190;5.688;2023-07-30T18:19:56;2.72;;;1.92;;
23812;SDS011;12087;45.190;5.688;2023-07-30T18:25:18;1.60;;;1.33;;
23812;SDS011;12087;45.190;5.688;2023-07-30T18:30:41;2.80;;;1.60;;
23812;SDS011;12087;45.190;5.688;2023-07-30T18:36:06;2.40;;;1.65;;
23812;SDS011;12087;45.190;5.688;2023-07-30T18:41:29;3.72;;;2.03;;
23812;SDS011;12087;45.190;5.688;2023-07-30T18:46:51;2.83;;;1.52;;
23812;SDS011;12087;45.190;5.688;2023-07-30T18:52:19;8.82;;;4.13;;
23812;SDS011;12087;45.190;5.688;2023-07-30T18:57:41;3.03;;;2.10;;
23812;SDS011;12087;45.190;5.688;2023-07-30T19:03:03;4.20;;;2.00;;
23812;SDS011;12087;45.190;5.688;2023-07-30T19:08:27;5.25;;;1.63;;
23812;SDS011;12087;45.190;5.688;2023-07-30T19:13:49;2.50;;;1.45;;
23812;SDS011;12087;45.190;5.688;2023-07-30T19:19:11;4.35;;;1.83;;
23812;SDS011;12087;45.190;5.688;2023-07-30T19:24:35;2.72;;;1.65;;
23812;SDS011;12087;45.190;5.688;2023-07-30T19:29:57;2.85;;;1.70;;
23812;SDS011;12087;45.190;5.688;2023-07-30T19:35:19;2.30;;;1.63;;
23812;SDS011;12087;45.190;5.688;2023-07-30T19:40:43;3.95;;;1.58;;
23812;SDS011;12087;45.190;5.688;2023-07-30T19:46:10;3.10;;;1.70;;
23812;SDS011;12087;45.190;5.688;2023-07-30T19:51:32;5.75;;;1.55;;
23812;SDS011;12087;45.190;5.688;2023-07-30T19:56:56;3.67;;;1.70;;
23812;SDS011;12087;45.190;5.688;2023-07-30T20:02:18;6.15;;;1.73;;
23812;SDS011;12087;45.190;5.688;2023-07-30T20:07:42;2.28;;;1.55;;
23812;SDS011;12087;45.190;5.688;2023-07-30T20:13:06;2.50;;;1.52;;
23812;SDS011;12087;45.190;5.688;2023-07-30T20:18:28;5.78;;;1.70;;
23812;SDS011;12087;45.190;5.688;2023-07-30T20:23:51;4.30;;;1.58;;
23812;SDS011;12087;45.190;5.688;2023-07-30T20:29:15;2.92;;;1.67;;
23812;SDS011;12087;45.190;5.688;2023-07-30T20:34:38;13.55;;;2.15;;
23812;SDS011;12087;45.190;5.688;2023-07-30T20:40:00;2.83;;;1.35;;
23812;SDS011;12087;45.190;5.688;2023-07-30T20:45:24;2.17;;;1.42;;
23812;SDS011;12087;45.190;5.688;2023-07-30T20:50:47;2.25;;;1.50;;
23812;SDS011;12087;45.190;5.688;2023-07-30T20:56:09;4.05;;;1.85;;
23812;SDS011;12087;45.190;5.688;2023-07-30T21:01:33;2.17;;;1.40;;
23812;SDS011;12087;45.190;5.688;2023-07-30T21:06:55;7.55;;;1.90;;
23812;SDS011;12087;45.190;5.688;2023-07-30T21:12:17;3.28;;;1.38;;
23812;SDS011;12087;45.190;5.688;2023-07-30T21:17:41;2.50;;;1.50;;
23812;SDS011;12087;45.190;5.688;2023-07-30T21:23:04;5.57;;;1.90;;
23812;SDS011;12087;45.190;5.688;2023-07-30T21:28:26;2.53;;;1.60;;
23812;SDS011;12087;45.190;5.688;2023-07-30T21:33:50;4.20;;;1.65;;
23812;SDS011;12087;45.190;5.688;2023-07-30T21:39:13;2.88;;;1.20;;
23812;SDS011;12087;45.190;5.688;2023-07-30T21:44:35;7.03;;;2.05;;
23812;SDS011;12087;45.190;5.688;2023-07-30T21:49:59;5.10;;;1.30;;
23812;SDS011;12087;45.190;5.688;2023-07-30T21:55:22;5.60;;;1.58;;
23812;SDS011;12087;45.190;5.688;2023-07-30T22:00:46;4.47;;;1.40;;
23812;SDS011;12087;45.190;5.688;2023-07-30T22:06:10;2.78;;;1.38;;
23812;SDS011;12087;45.190;5.688;2023-07-30T22:11:32;3.53;;;1.55;;
23812;SDS011;12087;45.190;5.688;2023-07-30T22:16:54;2.58;;;1.40;;
23812;SDS011;12087;45.190;5.688;2023-07-30T22:22:18;2.67;;;1.70;;
23812;SDS011;12087;45.190;5.688;2023-07-30T22:27:40;4.57;;;1.50;;
23812;SDS011;12087;45.190;5.688;2023-07-30T22:33:03;2.85;;;1.50;;
23812;SDS011;12087;45.190;5.688;2023-07-30T22:38:27;5.05;;;1.60;;
23812;SDS011;12087;45.190;5.688;2023-07-30T22:43:49;3.58;;;1.38;;
23812;SDS011;12087;45.190;5.688;2023-07-30T22:49:11;1.63;;;1.27;;
23812;SDS011;12087;45.190;5.688;2023-07-30T22:54:35;5.03;;;2.08;;
23812;SDS011;12087;45.190;5.688;2023-07-30T22:59:57;4.35;;;1.60;;
23812;SDS011;12087;45.190;5.688;2023-07-30T23:05:19;3.50;;;1.30;;
23812;SDS011;12087;45.190;5.688;2023-07-30T23:10:43;5.72;;;1.55;;
23812;SDS011;12087;45.190;5.688;2023-07-30T23:16:06;4.20;;;1.60;;
23812;SDS011;12087;45.190;5.688;2023-07-30T23:21:28;5.68;;;1.67;;
23812;SDS011;12087;45.190;5.688;2023-07-30T23:26:52;5.00;;;1.88;;
23812;SDS011;12087;45.190;5.688;2023-07-30T23:32:14;4.18;;;1.65;;
23812;SDS011;12087;45.190;5.688;2023-07-30T23:37:38;5.57;;;1.83;;
23812;SDS011;12087;45.190;5.688;2023-07-30T23:43:02;4.70;;;1.80;;
23812;SDS011;12087;45.190;5.688;2023-07-30T23:48:25;6.68;;;1.80;;
23812;SDS011;12087;45.190;5.688;2023-07-30T23:53:48;4.10;;;1.70;;
23812;SDS011;12087;45.190;5.688;2023-07-30T23:59:11;4.78;;;1.45;;
